createdAt,value
2017-08-13T00:02:07.107Z,34.90
2017-08-13T00:04:35.118Z,34.80
2017-08-13T00:07:03.598Z,34.80
2017-08-13T00:09:32.118Z,34.70
2017-08-13T00:12:00.702Z,34.60
2017-08-13T00:14:28.726Z,34.60
2017-08-13T00:16:58.284Z,34.60
2017-08-13T00:19:26.854Z,34.60
2017-08-13T00:21:55.278Z,34.50
2017-08-13T00:24:23.386Z,34.50
2017-08-13T00:26:51.835Z,34.40
2017-08-13T00:29:19.861Z,34.40
2017-08-13T00:31:48.521Z,34.20
2017-08-13T00:34:17.047Z,34.20
2017-08-13T00:36:45.627Z,34.20
2017-08-13T00:39:14.178Z,34.00
2017-08-13T00:41:42.702Z,34.10
2017-08-13T00:44:11.446Z,34.00
2017-08-13T00:46:39.930Z,34.00
2017-08-13T00:49:08.450Z,34.00
2017-08-13T00:51:37.033Z,33.90
2017-08-13T00:54:05.890Z,33.80
2017-08-13T00:56:35.024Z,33.90
2017-08-13T00:59:03.700Z,33.90
2017-08-13T01:01:32.359Z,34.00
2017-08-13T01:04:00.883Z,34.00
2017-08-13T01:06:29.461Z,34.00
2017-08-13T01:08:58.318Z,34.00
2017-08-13T01:11:26.717Z,34.00
2017-08-13T01:13:55.334Z,34.00
2017-08-13T01:16:24.138Z,34.00
2017-08-13T01:18:52.579Z,34.00
2017-08-13T01:21:21.182Z,34.00
2017-08-13T01:23:49.966Z,33.90
2017-08-13T01:26:18.748Z,33.80
2017-08-13T01:28:47.278Z,33.90
2017-08-13T01:31:16.034Z,33.90
2017-08-13T01:33:44.615Z,34.00
2017-08-13T01:36:13.407Z,33.90
2017-08-13T01:38:41.954Z,34.00
2017-08-13T01:41:10.582Z,33.90
2017-08-13T01:43:39.262Z,33.90
2017-08-13T01:46:07.939Z,33.90
2017-08-13T01:48:36.370Z,33.90
2017-08-13T01:51:05.505Z,33.90
2017-08-13T01:53:34.328Z,33.90
2017-08-13T01:56:02.935Z,33.90
2017-08-13T01:58:31.998Z,33.80
2017-08-13T02:01:00.855Z,33.80
2017-08-13T02:03:29.254Z,33.80
2017-08-13T02:05:57.962Z,33.80
2017-08-13T02:08:26.778Z,33.90
2017-08-13T02:10:54.803Z,33.90
2017-08-13T02:13:23.435Z,33.80
2017-08-13T02:15:52.302Z,33.80
2017-08-13T02:18:20.762Z,33.80
2017-08-13T02:20:49.366Z,33.90
2017-08-13T02:23:18.158Z,33.90
2017-08-13T02:25:46.849Z,33.90
2017-08-13T02:28:15.624Z,33.90
2017-08-13T02:30:43.757Z,33.90
2017-08-13T02:33:11.777Z,33.80
2017-08-13T02:35:39.802Z,33.90
2017-08-13T02:38:09.366Z,34.00
2017-08-13T02:40:37.978Z,34.00
2017-08-13T02:43:06.591Z,34.00
2017-08-13T02:45:35.091Z,34.10
2017-08-13T02:48:03.698Z,34.10
2017-08-13T02:50:32.310Z,34.20
2017-08-13T02:53:01.241Z,34.20
2017-08-13T02:55:29.690Z,34.30
2017-08-13T02:57:58.245Z,34.40
2017-08-13T03:00:27.380Z,34.50
2017-08-13T03:02:56.581Z,34.60
2017-08-13T03:05:25.730Z,34.60
2017-08-13T03:07:54.530Z,34.60
2017-08-13T03:10:22.537Z,34.70
2017-08-13T03:12:51.092Z,34.70
2017-08-13T03:15:19.806Z,34.80
2017-08-13T03:17:48.523Z,34.90
2017-08-13T03:20:16.924Z,34.90
2017-08-13T03:22:45.630Z,35.00
2017-08-13T03:25:14.314Z,35.10
2017-08-13T03:27:43.093Z,35.30
2017-08-13T03:30:11.732Z,35.20
2017-08-13T03:32:41.184Z,35.50
2017-08-13T03:35:09.710Z,35.50
2017-08-13T03:37:38.479Z,35.40
2017-08-13T03:40:07.154Z,35.60
2017-08-13T03:42:35.935Z,35.80
2017-08-13T03:45:04.826Z,35.90
2017-08-13T03:47:33.355Z,36.00
2017-08-13T03:50:01.917Z,36.10
2017-08-13T03:52:30.694Z,36.30
2017-08-13T03:54:59.447Z,36.50
2017-08-13T03:57:27.847Z,36.50
2017-08-13T03:59:56.658Z,36.60
2017-08-13T04:02:25.454Z,36.70
2017-08-13T04:04:54.198Z,36.90
2017-08-13T04:07:22.674Z,37.00
2017-08-13T04:09:51.207Z,37.40
2017-08-13T04:12:19.887Z,37.50
2017-08-13T04:14:48.776Z,37.70
2017-08-13T04:17:17.557Z,37.60
2017-08-13T04:19:46.031Z,37.90
2017-08-13T04:22:14.137Z,38.10
2017-08-13T04:24:42.159Z,38.20
2017-08-13T04:27:10.198Z,38.70
2017-08-13T04:29:38.783Z,38.90
2017-08-13T04:32:07.366Z,38.90
2017-08-13T04:34:36.013Z,39.40
2017-08-13T04:37:04.575Z,40.20
2017-08-13T04:39:33.094Z,41.30
2017-08-13T04:42:01.843Z,42.60
2017-08-13T04:44:29.958Z,42.70
2017-08-13T04:46:58.951Z,43.80
2017-08-13T04:49:27.458Z,44.00
2017-08-13T04:51:56.382Z,42.70
2017-08-13T04:54:25.100Z,42.40
2017-08-13T04:56:53.630Z,42.30
2017-08-13T04:59:21.735Z,42.30
2017-08-13T05:01:49.762Z,42.70
2017-08-13T05:04:19.174Z,43.60
2017-08-13T05:06:47.935Z,44.70
2017-08-13T05:09:16.683Z,44.80
2017-08-13T05:11:46.025Z,44.60
2017-08-13T05:14:14.815Z,44.60
2017-08-13T05:16:43.810Z,44.90
2017-08-13T05:19:12.558Z,45.20
2017-08-13T05:21:41.050Z,44.50
2017-08-13T05:24:09.594Z,44.10
2017-08-13T05:26:38.250Z,43.70
2017-08-13T05:29:06.883Z,43.80
2017-08-13T05:31:36.342Z,43.30
2017-08-13T05:34:05.122Z,43.30
2017-08-13T05:36:33.782Z,43.50
2017-08-13T05:39:02.307Z,44.90
2017-08-13T05:41:30.855Z,46.00
2017-08-13T05:43:59.448Z,46.80
2017-08-13T05:46:28.055Z,46.70
2017-08-13T05:48:56.565Z,46.00
2017-08-13T05:51:25.429Z,47.20
2017-08-13T05:53:53.802Z,46.30
2017-08-13T05:56:22.398Z,46.70
2017-08-13T05:58:51.287Z,46.10
2017-08-13T06:01:20.081Z,46.20
2017-08-13T06:03:48.542Z,45.90
2017-08-13T06:06:17.154Z,45.60
2017-08-13T06:08:45.966Z,45.60
2017-08-13T06:11:14.682Z,45.00
2017-08-13T06:13:43.088Z,44.70
2017-08-13T06:16:11.655Z,45.00
2017-08-13T06:18:40.374Z,45.00
2017-08-13T06:21:08.846Z,44.90
2017-08-13T06:23:37.586Z,45.10
2017-08-13T06:26:06.830Z,46.50
2017-08-13T06:28:35.542Z,46.50
2017-08-13T06:31:04.260Z,47.20
2017-08-13T06:33:33.534Z,48.90
2017-08-13T06:36:02.212Z,48.90
2017-08-13T06:38:31.062Z,49.20
2017-08-13T06:40:59.463Z,49.00
2017-08-13T06:43:28.066Z,49.50
2017-08-13T06:45:56.985Z,50.20
2017-08-13T06:48:25.610Z,49.20
2017-08-13T06:50:54.006Z,49.20
2017-08-13T06:53:22.675Z,48.10
2017-08-13T06:55:51.298Z,47.90
2017-08-13T06:58:20.078Z,47.40
2017-08-13T07:00:48.641Z,47.10
2017-08-13T07:03:17.162Z,47.40
2017-08-13T07:05:45.842Z,46.80
2017-08-13T07:08:14.735Z,46.80
2017-08-13T07:10:43.515Z,46.70
2017-08-13T07:13:11.543Z,46.50
2017-08-13T07:15:40.934Z,46.50
2017-08-13T07:18:09.411Z,46.50
2017-08-13T07:20:38.161Z,46.50
2017-08-13T07:23:06.725Z,46.20
2017-08-13T07:25:34.754Z,46.20
2017-08-13T07:28:03.187Z,46.40
2017-08-13T07:30:31.931Z,46.30
2017-08-13T07:33:00.444Z,46.50
2017-08-13T07:35:28.847Z,46.60
2017-08-13T07:37:57.587Z,47.10
2017-08-13T07:40:26.167Z,48.10
2017-08-13T07:42:54.883Z,48.10
2017-08-13T07:45:23.471Z,49.10
2017-08-13T07:47:52.335Z,49.90
2017-08-13T07:50:20.882Z,50.00
2017-08-13T07:52:48.990Z,50.60
2017-08-13T07:55:18.154Z,50.90
2017-08-13T07:57:46.643Z,50.90
2017-08-13T08:00:15.463Z,50.20
2017-08-13T08:02:43.898Z,49.90
2017-08-13T08:05:12.506Z,49.10
2017-08-13T08:07:41.214Z,48.30
2017-08-13T08:10:09.938Z,47.50
2017-08-13T08:12:38.331Z,47.10
2017-08-13T08:15:07.042Z,46.60
2017-08-13T08:17:35.728Z,46.30
2017-08-13T08:20:04.404Z,46.10
2017-08-13T08:22:32.966Z,45.90
2017-08-13T08:25:01.586Z,45.90
2017-08-13T08:27:30.199Z,45.80
2017-08-13T08:29:59.026Z,45.70
2017-08-13T08:32:27.425Z,45.90
2017-08-13T08:34:56.027Z,45.90
2017-08-13T08:37:24.746Z,46.00
2017-08-13T08:39:53.389Z,45.90
2017-08-13T08:42:21.862Z,45.90
2017-08-13T08:44:50.574Z,46.10
2017-08-13T08:47:19.255Z,45.90
2017-08-13T08:49:48.110Z,46.00
2017-08-13T08:52:16.603Z,46.00
2017-08-13T08:54:45.118Z,45.90
2017-08-13T08:57:13.726Z,46.10
2017-08-13T08:59:42.590Z,46.00
2017-08-13T09:02:11.380Z,46.10
2017-08-13T09:04:39.847Z,46.00
2017-08-13T09:07:08.659Z,46.10
2017-08-13T09:09:37.273Z,46.10
2017-08-13T09:12:05.990Z,46.00
2017-08-13T09:14:34.475Z,45.90
2017-08-13T09:17:02.994Z,45.90
2017-08-13T09:19:31.678Z,46.00
2017-08-13T09:22:00.571Z,45.90
2017-08-13T09:24:29.248Z,45.90
2017-08-13T09:26:58.665Z,45.70
2017-08-13T09:29:27.618Z,45.70
2017-08-13T09:31:55.966Z,45.60
2017-08-13T09:34:24.966Z,45.30
2017-08-13T09:36:53.622Z,44.80
2017-08-13T09:39:22.207Z,44.30
2017-08-13T09:41:50.776Z,44.20
2017-08-13T09:44:19.547Z,44.20
2017-08-13T09:46:48.162Z,43.70
2017-08-13T09:49:17.198Z,43.60
2017-08-13T09:51:46.518Z,43.00
2017-08-13T09:54:14.942Z,43.00
2017-08-13T09:56:43.702Z,43.00
2017-08-13T09:59:12.127Z,43.00
2017-08-13T10:01:40.698Z,42.80
2017-08-13T10:04:09.315Z,42.90
2017-08-13T10:06:38.747Z,42.60
2017-08-13T10:09:07.298Z,42.60
2017-08-13T10:11:36.046Z,42.50
2017-08-13T10:14:04.610Z,42.20
2017-08-13T10:16:33.129Z,42.00
2017-08-13T10:19:01.820Z,42.10
2017-08-13T10:21:30.445Z,42.20
2017-08-13T10:23:59.865Z,42.00
2017-08-13T10:26:28.258Z,42.00
2017-08-13T10:28:56.978Z,41.80
2017-08-13T10:31:25.601Z,41.80
2017-08-13T10:33:54.310Z,41.90
2017-08-13T10:36:22.827Z,41.90
2017-08-13T10:38:52.127Z,41.50
2017-08-13T10:41:20.651Z,41.70
2017-08-13T10:43:48.778Z,41.70
2017-08-13T10:46:17.246Z,41.70
2017-08-13T10:48:45.765Z,41.70
2017-08-13T10:51:14.953Z,41.70
2017-08-13T10:53:43.765Z,41.70
2017-08-13T10:56:12.519Z,41.60
2017-08-13T10:58:41.178Z,41.60
2017-08-13T11:01:09.705Z,41.70
2017-08-13T11:03:38.347Z,41.80
2017-08-13T11:06:06.833Z,41.80
2017-08-13T11:08:35.354Z,41.80
2017-08-13T11:11:04.039Z,41.70
2017-08-13T11:13:32.214Z,41.70
2017-08-13T11:16:00.811Z,41.60
2017-08-13T11:18:29.485Z,41.60
2017-08-13T11:20:58.066Z,41.50
2017-08-13T11:23:26.658Z,41.50
2017-08-13T11:25:55.406Z,41.50
2017-08-13T11:28:24.225Z,41.30
2017-08-13T11:30:52.698Z,41.50
2017-08-13T11:33:21.306Z,41.50
2017-08-13T11:35:50.028Z,41.50
2017-08-13T11:38:18.461Z,41.50
2017-08-13T11:40:47.062Z,41.50
2017-08-13T11:43:15.199Z,41.50
2017-08-13T11:45:43.754Z,41.40
2017-08-13T11:48:13.211Z,41.60
2017-08-13T11:50:41.869Z,41.50
2017-08-13T11:53:10.739Z,41.50
2017-08-13T11:55:39.881Z,41.40
2017-08-13T11:58:08.618Z,41.40
2017-08-13T12:00:37.199Z,41.20
2017-08-13T12:03:06.062Z,41.30
2017-08-13T12:05:34.609Z,41.30
2017-08-13T12:08:03.139Z,41.20
2017-08-13T12:10:31.828Z,41.20
2017-08-13T12:13:00.770Z,41.10
2017-08-13T12:15:29.170Z,41.10
2017-08-13T12:17:57.788Z,41.10
2017-08-13T12:20:25.935Z,41.10
2017-08-13T12:22:54.466Z,41.10
2017-08-13T12:25:23.026Z,41.00
2017-08-13T12:27:51.130Z,40.90
2017-08-13T12:30:19.154Z,40.90
2017-08-13T12:32:47.947Z,40.80
2017-08-13T12:35:16.503Z,40.70
2017-08-13T12:37:45.029Z,40.70
2017-08-13T12:40:13.706Z,40.70
2017-08-13T12:42:41.824Z,40.50
2017-08-13T12:45:10.989Z,40.30
2017-08-13T12:47:39.034Z,40.30
2017-08-13T12:50:07.598Z,40.30
2017-08-13T12:52:36.134Z,40.20
2017-08-13T12:55:05.119Z,40.10
2017-08-13T12:57:34.006Z,40.10
2017-08-13T13:00:02.684Z,40.00
2017-08-13T13:02:31.106Z,40.00
2017-08-13T13:04:59.870Z,40.00
2017-08-13T13:07:28.550Z,39.80
2017-08-13T13:09:57.331Z,39.60
2017-08-13T13:12:25.931Z,39.60
2017-08-13T13:14:54.515Z,39.60
2017-08-13T13:17:23.163Z,39.50
2017-08-13T13:19:51.691Z,39.50
2017-08-13T13:22:20.275Z,39.40
2017-08-13T13:24:49.019Z,39.40
2017-08-13T13:27:17.498Z,39.50
2017-08-13T13:29:46.022Z,39.30
2017-08-13T13:32:14.706Z,39.30
2017-08-13T13:34:43.662Z,39.20
2017-08-13T13:37:12.138Z,39.20
2017-08-13T13:39:40.154Z,39.10
2017-08-13T13:42:09.114Z,39.20
2017-08-13T13:44:37.507Z,39.10
2017-08-13T13:47:06.014Z,39.20
2017-08-13T13:49:34.832Z,39.10
2017-08-13T13:52:03.550Z,39.20
2017-08-13T13:54:32.918Z,39.00
2017-08-13T13:57:02.019Z,39.00
2017-08-13T13:59:30.741Z,39.00
2017-08-13T14:01:59.142Z,39.00
2017-08-13T14:04:27.878Z,38.90
2017-08-13T14:06:56.462Z,38.90
2017-08-13T14:09:25.186Z,38.90
2017-08-13T14:11:53.668Z,38.70
2017-08-13T14:14:22.186Z,38.60
2017-08-13T14:16:50.870Z,38.60
2017-08-13T14:19:19.766Z,38.40
2017-08-13T14:21:48.442Z,38.30
2017-08-13T14:24:16.870Z,38.20
2017-08-13T14:26:45.627Z,38.10
2017-08-13T14:29:14.306Z,38.00
2017-08-13T14:31:43.093Z,38.10
2017-08-13T14:34:11.646Z,38.10
2017-08-13T14:36:40.074Z,38.00
2017-08-13T14:39:08.097Z,37.90
2017-08-13T14:41:36.826Z,37.90
2017-08-13T14:44:05.442Z,37.70
2017-08-13T14:46:34.158Z,37.80
2017-08-13T14:49:02.725Z,37.80
2017-08-13T14:51:32.046Z,37.60
2017-08-13T14:54:00.455Z,37.70
2017-08-13T14:56:29.050Z,37.60
2017-08-13T14:58:57.838Z,37.60
2017-08-13T15:01:26.618Z,37.50
2017-08-13T15:03:55.234Z,37.40
2017-08-13T15:06:23.802Z,37.40
2017-08-13T15:08:52.387Z,37.40
2017-08-13T15:11:21.274Z,37.40
2017-08-13T15:13:49.785Z,37.30
2017-08-13T15:16:18.342Z,37.30
2017-08-13T15:18:47.130Z,37.30
2017-08-13T15:21:15.883Z,37.30
2017-08-13T15:23:44.334Z,37.20
2017-08-13T15:26:12.994Z,37.20
2017-08-13T15:28:41.608Z,37.30
2017-08-13T15:31:10.426Z,37.30
2017-08-13T15:33:38.947Z,37.20
2017-08-13T15:36:07.538Z,37.30
2017-08-13T15:38:36.147Z,37.10
2017-08-13T15:41:04.970Z,37.00
2017-08-13T15:43:34.043Z,37.00
2017-08-13T15:46:02.633Z,37.00
2017-08-13T15:48:32.198Z,37.00
2017-08-13T15:51:31.519Z,37.00
2017-08-13T15:54:30.037Z,37.00
2017-08-13T15:57:29.258Z,36.90
2017-08-13T16:00:28.368Z,36.90
2017-08-13T16:03:26.741Z,36.80
2017-08-13T16:06:25.148Z,37.00
2017-08-13T16:09:23.695Z,36.90
2017-08-13T16:12:22.024Z,36.90
2017-08-13T16:15:20.378Z,37.00
2017-08-13T16:18:18.618Z,36.80
2017-08-13T16:21:17.162Z,36.90
2017-08-13T16:24:15.607Z,36.90
2017-08-13T16:27:13.883Z,36.90
2017-08-13T16:30:12.230Z,36.90
2017-08-13T16:33:10.540Z,36.80
2017-08-13T16:36:08.744Z,36.80
2017-08-13T16:39:07.410Z,36.70
2017-08-13T16:42:06.107Z,36.70
2017-08-13T16:45:04.507Z,36.80
2017-08-13T16:48:03.863Z,36.70
2017-08-13T16:51:02.427Z,36.70
2017-08-13T16:53:31.455Z,36.80
2017-08-13T16:55:59.922Z,36.80
2017-08-13T16:58:27.959Z,36.80
2017-08-13T17:00:57.526Z,36.80
2017-08-13T17:03:27.866Z,36.80
2017-08-13T17:05:56.695Z,36.70
2017-08-13T17:08:25.615Z,36.80
2017-08-13T17:10:54.950Z,36.80
2017-08-13T17:13:24.226Z,36.80
2017-08-13T17:15:52.880Z,36.80
2017-08-13T17:18:21.276Z,36.80
2017-08-13T17:20:49.808Z,36.80
2017-08-13T17:23:18.427Z,36.90
2017-08-13T17:25:47.007Z,36.90
2017-08-13T17:28:16.079Z,36.90
2017-08-13T17:30:45.303Z,36.80
2017-08-13T17:33:13.582Z,36.80
2017-08-13T17:35:42.202Z,36.90
2017-08-13T17:38:10.779Z,36.90
2017-08-13T17:40:38.888Z,36.90
2017-08-13T17:43:07.641Z,36.80
2017-08-13T17:45:35.670Z,36.80
2017-08-13T17:48:04.958Z,36.80
2017-08-13T17:50:33.540Z,36.80
2017-08-13T17:53:01.559Z,36.80
2017-08-13T17:55:30.061Z,36.70
2017-08-13T17:57:58.854Z,36.60
2017-08-13T18:00:27.633Z,36.60
2017-08-13T18:02:56.194Z,36.60
2017-08-13T18:05:24.714Z,36.70
2017-08-13T18:07:53.398Z,36.60
2017-08-13T18:10:22.251Z,36.50
2017-08-13T18:12:50.662Z,36.50
2017-08-13T18:15:19.262Z,36.50
2017-08-13T18:17:48.082Z,36.60
2017-08-13T18:20:17.488Z,36.60
2017-08-13T18:22:46.062Z,36.60
2017-08-13T18:25:15.157Z,36.60
2017-08-13T18:27:44.022Z,36.70
2017-08-13T18:30:12.434Z,36.60
2017-08-13T18:32:41.130Z,36.60
2017-08-13T18:35:10.379Z,36.60
2017-08-13T18:37:38.920Z,36.50
2017-08-13T18:40:08.282Z,36.60
2017-08-13T18:42:36.966Z,36.60
2017-08-13T18:45:05.615Z,36.60
2017-08-13T18:47:34.207Z,36.60
2017-08-13T18:50:02.823Z,36.50
2017-08-13T18:52:30.834Z,36.50
2017-08-13T18:54:59.482Z,36.50
2017-08-13T18:57:27.844Z,36.50
2017-08-13T18:59:56.217Z,36.40
2017-08-13T19:02:25.032Z,36.50
2017-08-13T19:04:53.648Z,36.50
2017-08-13T19:07:23.413Z,36.50
2017-08-13T19:09:52.126Z,36.50
2017-08-13T19:12:20.662Z,36.50
2017-08-13T19:14:48.806Z,36.50
2017-08-13T19:17:17.566Z,36.50
2017-08-13T19:19:46.278Z,36.50
2017-08-13T19:22:14.309Z,36.50
2017-08-13T19:24:43.118Z,36.40
2017-08-13T19:27:11.797Z,36.40
2017-08-13T19:29:40.346Z,36.40
2017-08-13T19:32:09.923Z,36.30
2017-08-13T19:34:39.439Z,36.30
2017-08-13T19:37:08.586Z,36.20
2017-08-13T19:39:37.291Z,36.20
2017-08-13T19:42:05.302Z,36.20
2017-08-13T19:44:34.691Z,36.00
2017-08-13T19:47:03.346Z,36.00
2017-08-13T19:49:31.862Z,36.00
2017-08-13T19:52:00.342Z,36.00
2017-08-13T19:54:29.062Z,36.10
2017-08-13T19:56:57.470Z,36.10
2017-08-13T19:59:26.314Z,36.10
2017-08-13T20:01:55.594Z,36.00
2017-08-13T20:04:24.162Z,36.00
2017-08-13T20:06:52.842Z,36.00
2017-08-13T20:09:21.699Z,36.00
2017-08-13T20:11:50.094Z,36.00
2017-08-13T20:14:18.707Z,35.90
2017-08-13T20:16:47.518Z,35.90
2017-08-13T20:19:16.169Z,35.90
2017-08-13T20:21:44.694Z,35.90
2017-08-13T20:24:13.354Z,36.00
2017-08-13T20:26:41.386Z,35.90
2017-08-13T20:29:09.805Z,35.90
2017-08-13T20:31:38.626Z,35.90
2017-08-13T20:34:07.342Z,35.90
2017-08-13T20:36:35.361Z,36.00
2017-08-13T20:39:04.452Z,35.90
2017-08-13T20:41:32.931Z,35.80
2017-08-13T20:44:01.609Z,35.80
2017-08-13T20:46:30.266Z,35.80
2017-08-13T20:48:58.794Z,35.80
2017-08-13T20:51:27.334Z,35.80
2017-08-13T20:53:55.823Z,35.90
2017-08-13T20:56:24.366Z,35.80
2017-08-13T20:58:53.025Z,35.80
2017-08-13T21:01:21.659Z,35.80
2017-08-13T21:03:51.122Z,35.80
2017-08-13T21:06:19.793Z,35.80
2017-08-13T21:08:48.583Z,35.80
2017-08-13T21:11:18.099Z,35.80
2017-08-13T21:13:46.518Z,35.80
2017-08-13T21:16:15.375Z,35.80
2017-08-13T21:18:43.388Z,35.70
2017-08-13T21:21:12.706Z,35.80
2017-08-13T21:23:42.258Z,35.70
2017-08-13T21:26:10.798Z,35.70
2017-08-13T21:28:40.035Z,35.70
2017-08-13T21:31:08.934Z,35.70
2017-08-13T21:33:37.605Z,35.60
2017-08-13T21:36:06.131Z,35.70
2017-08-13T21:38:34.890Z,35.60
2017-08-13T21:41:03.541Z,35.60
2017-08-13T21:43:31.937Z,35.60
2017-08-13T21:46:00.642Z,35.60
2017-08-13T21:48:29.253Z,35.60
2017-08-13T21:50:57.694Z,35.70
2017-08-13T21:53:25.822Z,35.60
2017-08-13T21:55:54.568Z,35.60
2017-08-13T21:58:22.635Z,35.70
2017-08-13T22:00:51.538Z,35.50
2017-08-13T22:03:20.534Z,35.50
2017-08-13T22:05:49.294Z,35.60
2017-08-13T22:08:17.870Z,35.60
2017-08-13T22:10:46.318Z,35.60
2017-08-13T22:13:14.976Z,35.50
2017-08-13T22:15:43.652Z,35.50
2017-08-13T22:18:12.235Z,35.50
2017-08-13T22:20:40.835Z,35.50
2017-08-13T22:23:09.447Z,35.50
2017-08-13T22:25:38.094Z,35.60
2017-08-13T22:28:06.619Z,35.50
2017-08-13T22:30:35.306Z,35.50
2017-08-13T22:33:03.966Z,35.50
2017-08-13T22:35:32.640Z,35.40
2017-08-13T22:38:01.298Z,35.50
2017-08-13T22:40:29.654Z,35.50
2017-08-13T22:42:58.922Z,35.50
2017-08-13T22:45:27.711Z,35.50
2017-08-13T22:47:56.390Z,35.40
2017-08-13T22:50:25.068Z,35.40
2017-08-13T22:52:53.595Z,35.40
2017-08-13T22:55:22.174Z,35.40
2017-08-13T22:57:50.827Z,35.40
2017-08-13T23:00:19.379Z,35.40
2017-08-13T23:02:47.909Z,35.30
2017-08-13T23:05:16.901Z,35.40
2017-08-13T23:07:46.098Z,35.30
2017-08-13T23:10:14.706Z,35.30
2017-08-13T23:12:42.741Z,35.40
2017-08-13T23:15:11.541Z,35.30
2017-08-13T23:17:40.126Z,35.30
2017-08-13T23:20:08.907Z,35.30
2017-08-13T23:22:37.099Z,35.30
2017-08-13T23:25:05.706Z,35.20
2017-08-13T23:27:34.354Z,35.20
2017-08-13T23:30:03.014Z,35.20
2017-08-13T23:32:31.533Z,35.20
2017-08-13T23:35:00.218Z,35.20
2017-08-13T23:37:29.115Z,35.20
2017-08-13T23:39:57.894Z,35.20
2017-08-13T23:42:26.266Z,35.20
2017-08-13T23:44:54.971Z,35.30
2017-08-13T23:47:23.003Z,35.30
2017-08-13T23:49:51.526Z,35.30
2017-08-13T23:52:20.343Z,35.30
2017-08-13T23:54:49.094Z,35.20
2017-08-13T23:57:17.494Z,35.20
2017-08-13T23:59:46.174Z,35.20
